Time;durP1;ratioP1;P1;durP2;ratioP2;P2;SDS_P1;SDS_P2;PMS_P1;PMS_P2;Temp;Humidity;BMP_temperature;BMP_pressure;BME280_temperature;BME280_humidity;BME280_pressure;Samples;Min_cycle;Max_cycle;Signal;HPM_P1;HPM_P2
2023/07/17 06:09:01;;;;;;;;;1.00;0.00;;;;;20.71;48.01;101714.41;5092240;27;45691;-68
2023/07/17 06:11:26;;;;;;;;;1.00;1.00;;;;;20.95;47.43;101719.66;5090903;27;45579;-68
2023/07/17 06:13:51;;;;;;;;;4.00;1.33;;;;;21.15;47.59;101712.59;5082651;27;45519;-68
2023/07/17 06:16:17;;;;;;;;;2.67;2.67;;;;;21.44;46.79;101732.72;5087873;27;45645;-68
2023/07/17 06:18:42;;;;;;;;;3.00;1.00;;;;;21.66;47.37;101720.09;5075736;27;45748;-68
2023/07/17 06:21:08;;;;;;;;;1.00;1.00;;;;;21.89;46.95;101725.34;5089133;27;45754;-68
2023/07/17 06:23:33;;;;;;;;;1.00;1.00;;;;;22.13;46.24;101722.34;5089966;27;45429;-68
2023/07/17 06:26:00;;;;;;;;;1.00;1.00;;;;;22.31;46.01;101717.16;5088867;27;54835;-68
2023/07/17 06:28:25;;;;;;;;;3.33;1.67;;;;;22.50;45.76;101729.03;5087717;27;46812;-68
2023/07/17 06:30:51;;;;;;;;;1.00;1.00;;;;;22.70;45.52;101729.13;5079869;27;46000;-68
2023/07/17 06:33:16;;;;;;;;;1.00;1.00;;;;;22.84;45.20;101723.31;5089120;27;45369;-68
2023/07/17 06:35:43;;;;;;;;;1.00;1.00;;;;;23.00;44.96;101730.88;5089283;27;45469;-67
2023/07/17 06:38:08;;;;;;;;;1.33;1.33;;;;;23.12;45.03;101723.47;5081928;27;46282;-68
2023/07/17 06:40:35;;;;;;;;;2.33;2.33;;;;;23.24;44.77;101726.91;5088864;27;45531;-67
2023/07/17 06:43:00;;;;;;;;;7.00;2.67;;;;;23.35;44.56;101731.34;5087227;27;45512;-68
2023/07/17 06:45:25;;;;;;;;;2.00;0.67;;;;;23.46;44.39;101733.03;5088965;27;45470;-68
2023/07/17 06:47:50;;;;;;;;;2.00;2.00;;;;;23.57;44.20;101728.47;5088430;27;55472;-68
2023/07/17 06:50:16;;;;;;;;;2.00;2.00;;;;;23.63;43.75;101734.16;5087525;27;56097;-68
2023/07/17 06:52:42;;;;;;;;;3.00;3.00;;;;;23.72;43.63;101737.84;5088713;27;45800;-68
2023/07/17 06:55:08;;;;;;;;;1.00;1.00;;;;;23.81;43.82;101736.13;5089237;27;45817;-67
2023/07/17 06:57:33;;;;;;;;;1.00;0.00;;;;;23.87;43.60;101737.41;5088097;27;45769;-67
2023/07/17 06:59:59;;;;;;;;;3.00;1.00;;;;;23.93;43.67;101737.66;5086205;27;45479;-68
2023/07/17 07:02:24;;;;;;;;;3.00;1.33;;;;;23.98;43.37;101737.22;5081303;27;45446;-69
2023/07/17 07:04:50;;;;;;;;;1.67;1.67;;;;;24.04;43.47;101736.59;5090537;27;45455;-69
2023/07/17 07:07:15;;;;;;;;;2.67;1.00;;;;;24.09;43.25;101741.63;5071705;27;47537;-69
2023/07/17 07:09:40;;;;;;;;;3.00;1.33;;;;;24.16;43.56;101742.75;5085428;27;50878;-69
2023/07/17 07:12:06;;;;;;;;;2.00;2.00;;;;;24.20;43.06;101741.44;5086830;27;45584;-69
2023/07/17 07:14:31;;;;;;;;;2.67;1.33;;;;;24.25;43.01;101749.16;5088195;27;45419;-68
2023/07/17 07:16:57;;;;;;;;;1.00;1.00;;;;;24.30;42.79;101744.13;5085789;27;45490;-67
2023/07/17 07:19:22;;;;;;;;;4.00;2.00;;;;;24.33;42.82;101751.94;5071421;27;45413;-67
2023/07/17 07:21:48;;;;;;;;;1.00;1.00;;;;;24.38;42.97;101754.22;5074922;27;45638;-67
2023/07/17 07:24:13;;;;;;;;;0.33;0.33;;;;;24.38;43.20;101747.94;5072560;27;45525;-69
2023/07/17 07:26:39;;;;;;;;;1.00;1.00;;;;;24.46;42.89;101756.19;5067407;27;45996;-69
2023/07/17 07:29:04;;;;;;;;;1.67;1.67;;;;;24.53;43.26;101756.44;5071995;27;45466;-68
2023/07/17 07:31:29;;;;;;;;;3.33;1.00;;;;;24.58;43.04;101755.00;5074362;27;45648;-69
2023/07/17 07:33:54;;;;;;;;;3.00;1.67;;;;;24.62;42.35;101752.81;5074916;27;47678;-68
2023/07/17 07:36:21;;;;;;;;;1.00;1.00;;;;;24.63;42.26;101749.09;5074308;27;57616;-69
2023/07/17 07:38:46;;;;;;;;;1.00;1.00;;;;;24.68;42.09;101762.22;5074360;27;45486;-68
2023/07/17 07:41:12;;;;;;;;;2.00;2.00;;;;;24.69;42.34;101759.34;5077418;27;50762;-67
2023/07/17 07:43:37;;;;;;;;;2.00;2.00;;;;;24.71;41.81;101759.19;5075774;27;45530;-71
2023/07/17 07:46:02;;;;;;;;;3.00;1.33;;;;;24.74;42.00;101759.72;5087530;27;53466;-72
2023/07/17 07:48:30;;;;;;;;;1.00;1.00;;;;;24.76;41.45;101754.16;5069590;27;45425;-72
2023/07/17 07:50:55;;;;;;;;;1.00;1.00;;;;;24.82;41.57;101763.56;5074251;28;45679;-71
2023/07/17 07:53:20;;;;;;;;;3.00;1.00;;;;;24.83;41.65;101762.59;5075154;27;45650;-72
2023/07/17 07:55:46;;;;;;;;;1.33;1.33;;;;;24.88;41.38;101764.84;5073461;28;45840;-71
2023/07/17 07:58:11;;;;;;;;;1.00;1.00;;;;;24.89;41.38;101761.97;5072711;28;45421;-71
2023/07/17 08:00:36;;;;;;;;;1.00;1.00;;;;;24.93;41.66;101765.25;5074358;28;45519;-70
2023/07/17 08:03:02;;;;;;;;;1.00;1.00;;;;;24.92;41.26;101763.50;5075311;27;47162;-70
2023/07/17 08:05:27;;;;;;;;;2.67;1.00;;;;;24.95;40.90;101765.94;5073661;28;46426;-68
2023/07/17 08:07:52;;;;;;;;;2.00;2.00;;;;;24.93;40.73;101768.78;5073929;27;45390;-68
2023/07/17 08:10:18;;;;;;;;;1.00;1.00;;;;;24.98;41.06;101773.78;5074262;27;45375;-68
2023/07/17 08:12:43;;;;;;;;;3.00;1.00;;;;;24.98;40.70;101771.06;5073643;27;45617;-68
2023/07/17 08:15:09;;;;;;;;;2.33;2.33;;;;;24.97;40.43;101774.81;5074103;27;46317;-68
2023/07/17 08:17:35;;;;;;;;;5.33;2.00;;;;;24.98;40.94;101773.78;5072888;27;45732;-68
2023/07/17 08:20:00;;;;;;;;;2.33;2.33;;;;;24.99;40.85;101759.19;5076838;27;45589;-70
2023/07/17 08:22:25;;;;;;;;;1.33;1.33;;;;;25.02;40.63;101769.75;5073695;27;45394;-68
2023/07/17 08:24:51;;;;;;;;;2.00;1.00;;;;;25.04;40.43;101777.72;5072871;27;55992;-69
2023/07/17 08:27:16;;;;;;;;;1.67;1.67;;;;;25.04;40.31;101778.59;5066851;27;45461;-68
2023/07/17 08:29:41;;;;;;;;;1.67;1.67;;;;;25.07;40.78;101782.88;5073751;28;45344;-68
2023/07/17 08:32:08;;;;;;;;;1.00;1.00;;;;;25.08;40.35;101788.16;5073160;27;45672;-68
2023/07/17 08:34:34;;;;;;;;;1.33;0.67;;;;;25.12;40.47;101785.97;5061650;27;46190;-69
2023/07/17 08:36:59;;;;;;;;;1.33;1.33;;;;;25.13;39.96;101776.81;5076177;27;52097;-69
2023/07/17 08:39:24;;;;;;;;;1.67;1.00;;;;;25.13;40.16;101772.25;5076096;27;45353;-69
2023/07/17 08:41:50;;;;;;;;;2.00;2.00;;;;;25.17;40.31;101788.25;5068955;27;45681;-68
2023/07/17 08:44:19;;;;;;;;;1.67;1.67;;;;;25.19;40.38;101778.06;5069091;27;46586;-68
2023/07/17 08:46:47;;;;;;;;;1.00;1.00;;;;;25.18;40.50;101777.19;5080056;27;45555;-68
2023/07/17 08:49:15;;;;;;;;;2.67;2.00;;;;;25.19;40.29;101775.34;5074155;27;45876;-68
2023/07/17 08:51:41;;;;;;;;;1.00;1.00;;;;;25.17;39.90;101770.06;5073169;27;45900;-68
2023/07/17 08:54:07;;;;;;;;;5.33;2.33;;;;;25.20;39.67;101772.47;5073053;27;46122;-69
2023/07/17 08:56:34;;;;;;;;;2.00;2.00;;;;;25.23;39.63;101774.91;5071350;27;45495;-69
2023/07/17 08:59:01;;;;;;;;;2.00;2.00;;;;;25.22;39.37;101778.59;5072496;27;45526;-69
2023/07/17 09:01:26;;;;;;;;;2.00;2.00;;;;;25.23;39.40;101780.31;5076369;27;45388;-68
2023/07/17 09:03:52;;;;;;;;;1.00;1.00;;;;;25.24;39.40;101778.44;5076431;27;46149;-68
2023/07/17 09:06:22;;;;;;;;;1.67;1.00;;;;;25.26;40.06;101771.00;5072950;27;45411;-68
2023/07/17 09:08:47;;;;;;;;;1.00;1.00;;;;;25.27;39.66;101772.72;5072417;27;45401;-68
2023/07/17 09:11:15;;;;;;;;;0.67;0.67;;;;;25.31;39.82;101774.13;5064763;28;56061;-68
2023/07/17 09:13:42;;;;;;;;;1.67;1.67;;;;;25.32;39.73;101774.94;5071742;27;45376;-67
2023/07/17 09:16:11;;;;;;;;;1.00;1.00;;;;;25.32;39.87;101778.53;5072947;27;45762;-70
2023/07/17 09:18:36;;;;;;;;;2.00;2.00;;;;;25.35;39.72;101778.22;5061715;27;45507;-67
2023/07/17 09:21:02;;;;;;;;;0.00;0.00;;;;;25.36;39.61;101784.50;5072173;27;45524;-67
2023/07/17 09:23:38;;;;;;;;;0.67;0.67;;;;;25.38;39.92;101777.06;5072181;27;46432;-69
2023/07/17 09:26:03;;;;;;;;;1.00;1.00;;;;;25.39;39.66;101785.03;5071244;28;45374;-69
2023/07/17 09:28:29;;;;;;;;;1.00;1.00;;;;;25.42;39.71;101780.31;5072265;28;45504;-69
2023/07/17 09:31:01;;;;;;;;;3.00;2.00;;;;;25.44;39.24;101770.13;5073088;27;45375;-68
2023/07/17 09:33:26;;;;;;;;;1.33;1.33;;;;;25.44;39.50;101778.28;5071804;28;47272;-67
2023/07/17 09:35:56;;;;;;;;;2.00;2.00;;;;;25.46;39.74;101785.25;5073412;27;48247;-67
2023/07/17 09:38:28;;;;;;;;;3.33;1.00;;;;;25.46;39.77;101782.53;5072459;28;45469;-68
2023/07/17 09:40:53;;;;;;;;;2.00;0.67;;;;;25.48;39.34;101782.41;5071260;28;45462;-68
2023/07/17 09:43:30;;;;;;;;;1.00;1.00;;;;;25.49;39.37;101784.97;5070389;28;46435;-69
2023/07/17 09:45:58;;;;;;;;;1.00;1.00;;;;;25.51;39.49;101777.50;5072640;27;45458;-67
2023/07/17 09:48:27;;;;;;;;;1.00;1.00;;;;;25.52;39.12;101781.06;5072510;27;45371;-69
2023/07/17 09:50:53;;;;;;;;;1.33;0.00;;;;;25.54;39.63;101779.03;5072302;27;45644;-69
2023/07/17 09:53:21;;;;;;;;;2.00;2.00;;;;;25.56;39.59;101787.06;5072450;27;46591;-70
2023/07/17 09:55:50;;;;;;;;;2.33;1.67;;;;;25.55;39.37;101775.38;5071009;28;45619;-70
2023/07/17 09:58:21;;;;;;;;;4.00;1.33;;;;;25.56;39.25;101771.63;5070778;28;45454;-69
2023/07/17 10:00:48;;;;;;;;;0.00;0.00;;;;;25.57;39.27;101781.50;5072639;27;45469;-68
2023/07/17 10:03:17;;;;;;;;;1.33;1.33;;;;;25.58;38.77;101774.19;5066539;27;45312;-68
2023/07/17 10:05:43;;;;;;;;;1.33;1.33;;;;;25.59;39.33;101781.34;5071534;28;45445;-67
2023/07/17 10:08:12;;;;;;;;;2.00;1.00;;;;;25.58;39.45;101777.75;5071995;27;45595;-68
2023/07/17 10:10:38;;;;;;;;;2.00;2.00;;;;;25.58;38.68;101777.75;5079363;27;45505;-68
2023/07/17 10:13:05;;;;;;;;;2.33;1.00;;;;;25.60;38.82;101774.88;5064360;28;45583;-68
2023/07/17 10:15:31;;;;;;;;;0.33;0.33;;;;;25.61;39.11;101774.72;5072034;27;45475;-66
2023/07/17 10:17:58;;;;;;;;;2.00;2.00;;;;;25.59;38.88;101768.59;5065306;27;45616;-66
2023/07/17 10:20:24;;;;;;;;;1.00;1.00;;;;;25.62;39.12;101779.16;5073295;27;45811;-66
2023/07/17 10:22:50;;;;;;;;;0.00;0.00;;;;;25.63;38.77;101774.56;5064898;27;45614;-66
2023/07/17 10:25:18;;;;;;;;;1.00;1.00;;;;;25.64;39.01;101781.72;5061458;27;45665;-66
2023/07/17 10:27:46;;;;;;;;;1.00;1.00;;;;;25.64;38.93;101779.00;5062665;27;45718;-67
2023/07/17 10:30:25;;;;;;;;;1.00;1.00;;;;;25.62;39.02;101773.72;5065571;27;45351;-67
2023/07/17 10:33:10;;;;;;;;;1.67;1.00;;;;;25.64;38.72;101770.84;5060931;27;45468;-66
2023/07/17 10:35:45;;;;;;;;;1.00;1.00;;;;;25.61;38.86;101780.16;5066403;27;45792;-68
2023/07/17 10:38:12;;;;;;;;;0.00;0.00;;;;;25.61;39.22;101782.88;5075945;27;45513;-69
2023/07/17 10:40:37;;;;;;;;;4.33;2.33;;;;;25.60;38.76;101769.44;5061335;28;45444;-69
2023/07/17 10:43:35;;;;;;;;;2.67;2.00;;;;;25.64;38.45;101779.00;5067400;28;45474;-68
2023/07/17 10:46:07;;;;;;;;;2.00;0.00;;;;;25.58;38.71;101769.59;5043185;28;47004;-69
2023/07/17 10:48:34;;;;;;;;;0.00;0.00;;;;;25.63;39.42;101780.00;5048701;28;45554;-70
2023/07/17 10:50:59;;;;;;;;;1.00;1.00;;;;;25.63;38.76;101780.00;5047786;28;45486;-70
2023/07/17 10:53:24;;;;;;;;;0.67;0.67;;;;;25.63;39.20;101782.72;5047900;28;56699;-71
2023/07/17 10:55:51;;;;;;;;;1.33;0.67;;;;;25.65;39.36;101781.56;5052217;28;45628;-70
2023/07/17 10:58:20;;;;;;;;;2.33;1.00;;;;;25.64;39.26;101770.84;5051213;28;45760;-70
2023/07/17 11:00:46;;;;;;;;;1.33;1.33;;;;;25.64;39.15;101782.59;5051885;28;45511;-71
2023/07/17 11:03:16;;;;;;;;;2.67;1.00;;;;;25.63;38.87;101769.97;5052210;28;45651;-70
2023/07/17 11:05:43;;;;;;;;;0.00;0.00;;;;;25.65;39.36;101777.97;5051733;28;45405;-70
2023/07/17 11:08:11;;;;;;;;;0.67;0.67;;;;;25.64;39.00;101768.13;5051808;28;46038;-71
2023/07/17 11:10:40;;;;;;;;;2.00;2.00;;;;;25.63;39.43;101775.41;5050632;28;45687;-70
2023/07/17 11:13:05;;;;;;;;;1.67;1.67;;;;;25.62;39.05;101776.44;5044755;28;46212;-71
2023/07/17 11:15:35;;;;;;;;;1.00;1.00;;;;;25.64;39.47;101781.72;5051774;28;45751;-68
2023/07/17 11:18:02;;;;;;;;;0.00;0.00;;;;;25.64;39.27;101777.16;5052361;28;45552;-68
2023/07/17 11:20:29;;;;;;;;;2.00;1.00;;;;;25.58;39.00;101766.03;5051848;28;45463;-68
2023/07/17 11:22:55;;;;;;;;;0.33;0.33;;;;;25.64;39.56;101779.88;5067194;27;45449;-67
2023/07/17 11:25:28;;;;;;;;;1.00;1.00;;;;;25.64;38.90;101776.28;5072083;27;45374;-68
2023/07/17 11:27:55;;;;;;;;;2.00;0.00;;;;;25.64;39.17;101784.44;5073578;28;45457;-68
2023/07/17 11:30:24;;;;;;;;;1.00;1.00;;;;;25.64;39.06;101779.88;5072162;27;45344;-68
2023/07/17 11:33:10;;;;;;;;;1.00;1.00;;;;;25.65;39.26;101780.69;5068860;28;46658;-68
2023/07/17 11:35:46;;;;;;;;;1.67;0.00;;;;;25.64;39.51;101779.00;5063058;27;45669;-68
2023/07/17 11:38:14;;;;;;;;;2.67;1.00;;;;;25.64;39.50;101779.00;5069228;27;45586;-67
2023/07/17 11:40:58;;;;;;;;;3.67;0.67;;;;;25.68;39.13;101774.09;5070998;27;45473;-69
2023/07/17 11:43:24;;;;;;;;;1.67;1.67;;;;;25.65;39.48;101773.41;5062463;27;45448;-72
2023/07/17 11:45:50;;;;;;;;;2.00;1.00;;;;;25.67;39.19;101773.25;5069903;27;45673;-70
2023/07/17 11:48:15;;;;;;;;;0.00;0.00;;;;;25.68;39.40;101771.38;5074830;27;45483;-71
2023/07/17 11:50:41;;;;;;;;;3.67;1.00;;;;;25.71;39.82;101782.78;5081322;27;45809;-72
2023/07/17 11:53:08;;;;;;;;;4.00;2.67;;;;;25.73;39.59;101788.06;5072881;27;46436;-71
2023/07/17 11:55:38;;;;;;;;;2.00;1.00;;;;;25.75;39.79;101775.19;5072923;27;45703;-71
2023/07/17 11:58:20;;;;;;;;;2.00;2.00;;;;;25.78;39.56;101783.00;5072769;28;45711;-70
2023/07/17 12:00:48;;;;;;;;;1.33;1.33;;;;;25.78;39.04;101773.00;5073986;27;45417;-70
2023/07/17 12:03:14;;;;;;;;;1.00;1.00;;;;;25.82;39.31;101787.09;5073389;27;46302;-71
2023/07/17 12:05:40;;;;;;;;;1.00;1.00;;;;;25.82;38.95;101778.13;5068740;28;45556;-70
2023/07/17 12:08:06;;;;;;;;;2.33;1.00;;;;;25.86;39.37;101763.16;5074940;27;45394;-70
2023/07/17 12:10:32;;;;;;;;;1.00;1.00;;;;;25.87;39.43;101765.72;5073810;27;45547;-70
2023/07/17 12:12:58;;;;;;;;;0.00;0.00;;;;;25.88;39.04;101761.16;5073269;28;45469;-69
2023/07/17 12:15:23;;;;;;;;;1.00;1.00;;;;;25.88;39.49;101762.00;5072374;27;46072;-70
2023/07/17 12:17:49;;;;;;;;;2.00;2.00;;;;;25.89;39.36;101757.41;5068951;28;45524;-71
2023/07/17 12:20:15;;;;;;;;;0.00;0.00;;;;;25.91;38.87;101769.84;5073730;27;45613;-71
2023/07/17 12:22:41;;;;;;;;;1.00;0.00;;;;;25.92;38.94;101763.38;5082349;27;45523;-72
2023/07/17 12:25:07;;;;;;;;;1.00;1.00;;;;;25.94;39.29;101759.66;5073844;27;45593;-70
2023/07/17 12:27:33;;;;;;;;;1.33;1.33;;;;;25.92;38.82;101757.94;5073711;28;45592;-70
2023/07/17 12:29:58;;;;;;;;;0.00;0.00;;;;;25.97;39.13;101760.19;5072043;28;45553;-69
2023/07/17 12:32:23;;;;;;;;;1.00;1.00;;;;;25.97;39.17;101752.03;5071550;28;48425;-70
2023/07/17 12:34:48;;;;;;;;;1.00;1.00;;;;;25.99;39.21;101751.88;5073314;28;45491;-70
2023/07/17 12:37:14;;;;;;;;;1.00;1.00;;;;;26.01;39.35;101758.88;5074287;27;45926;-71
2023/07/17 12:39:39;;;;;;;;;2.00;1.00;;;;;26.01;39.29;101742.53;5072149;28;45566;-70
2023/07/17 12:42:05;;;;;;;;;0.00;0.00;;;;;26.02;39.37;101744.25;5073263;27;45367;-70
2023/07/17 12:44:30;;;;;;;;;1.00;1.00;;;;;26.03;39.30;101751.38;5073632;27;45411;-71
2023/07/17 12:46:55;;;;;;;;;2.33;1.33;;;;;26.05;39.35;101752.09;5064382;28;45503;-71
2023/07/17 12:49:20;;;;;;;;;0.33;0.33;;;;;26.06;39.33;101736.59;5073312;28;58211;-70
2023/07/17 12:51:46;;;;;;;;;0.33;0.33;;;;;26.08;39.27;101739.16;5068303;28;51811;-69
2023/07/17 12:54:11;;;;;;;;;0.67;0.67;;;;;26.09;39.48;101749.03;5073398;28;45458;-69
2023/07/17 12:56:36;;;;;;;;;1.00;1.00;;;;;26.10;39.30;101754.31;5071757;28;45891;-71
2023/07/17 12:59:02;;;;;;;;;0.00;0.00;;;;;26.10;39.43;101746.16;5072626;27;60814;-70
2023/07/17 13:01:27;;;;;;;;;0.00;0.00;;;;;26.11;39.21;101752.47;5072225;27;46410;-68
2023/07/17 13:03:52;;;;;;;;;1.00;0.67;;;;;26.12;39.18;101752.28;5072854;27;45745;-68
2023/07/17 13:06:20;;;;;;;;;1.00;1.00;;;;;26.12;39.51;101743.28;5072363;27;45563;-68
2023/07/17 13:08:45;;;;;;;;;1.00;1.00;;;;;26.12;39.32;101746.81;5070915;28;45530;-68
2023/07/17 13:11:10;;;;;;;;;1.00;1.00;;;;;26.13;38.86;101747.69;5069556;27;46310;-66
2023/07/17 13:13:36;;;;;;;;;1.00;1.00;;;;;26.15;39.27;101759.25;5074180;27;45614;-67
2023/07/17 13:16:01;;;;;;;;;0.00;0.00;;;;;26.10;39.36;101748.00;5073454;27;45625;-67
2023/07/17 13:18:27;;;;;;;;;0.00;0.00;;;;;26.14;39.39;101750.25;5058941;28;45591;-70
2023/07/17 13:20:52;;;;;;;;;0.00;0.00;;;;;26.11;38.74;101752.47;5071418;27;54609;-70
2023/07/17 13:23:18;;;;;;;;;0.00;0.00;;;;;26.14;39.43;101752.97;5071521;27;45862;-68
2023/07/17 13:25:43;;;;;;;;;0.33;0.33;;;;;26.14;39.29;101749.38;5069592;28;45450;-68
2023/07/17 13:28:08;;;;;;;;;0.33;0.00;;;;;26.17;38.77;101757.25;5066798;27;48988;-68
2023/07/17 13:30:34;;;;;;;;;2.00;0.67;;;;;26.15;38.65;101745.66;5059408;27;46504;-67
2023/07/17 13:32:59;;;;;;;;;0.00;0.00;;;;;26.16;39.22;101747.38;5072992;27;45724;-69
2023/07/17 13:35:24;;;;;;;;;0.67;0.67;;;;;26.17;39.22;101757.25;5070999;27;45470;-72
2023/07/17 13:37:50;;;;;;;;;0.00;0.00;;;;;26.16;39.34;101750.09;5073320;27;45587;-71
2023/07/17 13:40:15;;;;;;;;;0.33;0.33;;;;;26.15;39.43;101753.81;5072719;27;56790;-72
2023/07/17 13:42:40;;;;;;;;;0.00;0.00;;;;;26.18;39.13;101756.22;5073087;27;45511;-68
2023/07/17 13:45:07;;;;;;;;;0.67;0.67;;;;;26.17;39.09;101749.91;5071573;27;45512;-70
2023/07/17 13:47:32;;;;;;;;;0.00;0.00;;;;;26.18;39.20;101740.75;5069213;27;45664;-69
2023/07/17 13:49:58;;;;;;;;;1.00;1.00;;;;;26.18;38.76;101739.91;5071163;27;47444;-70
2023/07/17 13:52:23;;;;;;;;;1.00;1.00;;;;;26.16;38.85;101736.50;5070577;27;45457;-70
2023/07/17 13:54:48;;;;;;;;;1.00;0.00;;;;;26.18;39.00;101746.19;5058031;27;45443;-71
2023/07/17 13:57:14;;;;;;;;;0.00;0.00;;;;;26.20;38.51;101739.75;5066934;28;45592;-69
2023/07/17 13:59:42;;;;;;;;;0.00;0.00;;;;;26.16;39.58;101740.06;5065159;27;47044;-70
2023/07/17 14:02:07;;;;;;;;;1.00;1.00;;;;;26.20;39.56;101748.75;5065129;27;45509;-71
2023/07/17 14:04:32;;;;;;;;;1.00;1.00;;;;;26.21;39.67;101745.03;5064257;27;45516;-70
2023/07/17 14:06:58;;;;;;;;;0.67;0.67;;;;;26.23;39.38;101736.69;5065837;27;45568;-71
2023/07/17 14:09:23;;;;;;;;;0.00;0.00;;;;;26.23;38.88;101740.25;5070942;28;46425;-70
2023/07/17 14:11:48;;;;;;;;;0.00;0.00;;;;;26.22;38.82;101746.72;5070602;27;45373;-70
2023/07/17 14:14:14;;;;;;;;;0.33;0.33;;;;;26.23;38.67;101734.81;5067656;27;45489;-70
2023/07/17 14:16:39;;;;;;;;;1.00;1.00;;;;;26.27;39.35;101733.50;5070452;28;53644;-71
2023/07/17 14:19:04;;;;;;;;;0.67;0.67;;;;;26.26;39.00;101723.66;5063389;27;47383;-71
2023/07/17 14:21:30;;;;;;;;;0.00;0.00;;;;;26.26;39.62;101731.81;5069151;27;45762;-70
2023/07/17 14:23:55;;;;;;;;;1.00;1.00;;;;;26.28;39.35;101734.38;5072105;27;45704;-71
2023/07/17 14:26:20;;;;;;;;;1.00;0.00;;;;;26.26;38.99;101731.81;5070082;27;45778;-71
2023/07/17 14:28:46;;;;;;;;;1.00;1.00;;;;;26.25;38.95;101729.25;5070323;27;46123;-71
2023/07/17 14:31:12;;;;;;;;;0.00;0.00;;;;;26.22;38.92;101722.22;5075540;28;45421;-71
2023/07/17 14:33:37;;;;;;;;;0.33;0.00;;;;;26.24;39.67;101720.19;5075771;27;45498;-71
2023/07/17 14:36:03;;;;;;;;;0.33;0.33;;;;;26.20;39.03;101732.44;5075651;27;45509;-70
2023/07/17 14:38:28;;;;;;;;;1.00;1.00;;;;;26.22;39.60;101724.97;5075253;27;45470;-70
2023/07/17 14:40:53;;;;;;;;;0.00;0.00;;;;;26.20;39.67;101717.97;5072595;27;45609;-70
2023/07/17 14:43:19;;;;;;;;;0.67;0.00;;;;;26.22;39.35;101726.81;5068533;28;45891;-70
2023/07/17 14:45:44;;;;;;;;;1.67;1.00;;;;;26.18;39.97;101726.28;5073682;28;45610;-70
2023/07/17 14:48:09;;;;;;;;;2.00;0.33;;;;;26.18;40.07;101726.28;5074974;27;47822;-70
2023/07/17 14:50:35;;;;;;;;;0.00;0.00;;;;;26.20;39.47;101729.72;5075103;28;55328;-69
2023/07/17 14:53:00;;;;;;;;;0.00;0.00;;;;;26.20;39.97;101716.13;5065938;27;45793;-70
2023/07/17 14:55:25;;;;;;;;;1.00;1.00;;;;;26.21;40.15;101717.81;5074436;28;45505;-70
2023/07/17 14:57:52;;;;;;;;;0.67;0.00;;;;;26.22;40.01;101714.06;5073530;28;45715;-69
2023/07/17 15:00:19;;;;;;;;;0.33;0.33;;;;;26.26;40.22;101714.63;5074747;27;45879;-69
2023/07/17 15:02:44;;;;;;;;;0.33;0.33;;;;;26.25;39.52;101712.91;5073916;28;45454;-70
2023/07/17 15:05:10;;;;;;;;;0.00;0.00;;;;;26.28;39.39;101723.50;5074195;27;45426;-69
2023/07/17 15:07:35;;;;;;;;;0.00;0.00;;;;;26.28;39.44;101721.59;5073158;27;45695;-69
2023/07/17 15:10:01;;;;;;;;;2.00;2.00;;;;;26.29;40.04;101708.88;5075136;28;45663;-69
2023/07/17 15:12:26;;;;;;;;;0.00;0.00;;;;;26.30;40.04;101719.59;5073546;27;45449;-69
2023/07/17 15:14:52;;;;;;;;;0.00;0.00;;;;;26.32;40.18;101722.13;5074326;27;45428;-70
2023/07/17 15:17:17;;;;;;;;;1.00;0.00;;;;;26.35;40.46;101723.69;5068866;28;45427;-69
2023/07/17 15:19:42;;;;;;;;;1.00;0.00;;;;;26.35;39.95;101724.53;5070585;28;45474;-68
2023/07/17 15:22:14;;;;;;;;;1.00;1.00;;;;;26.36;39.75;101726.22;5074502;28;45685;-69
2023/07/17 15:24:39;;;;;;;;;0.00;0.00;;;;;26.36;39.65;101718.06;5073982;27;45391;-69
2023/07/17 15:27:04;;;;;;;;;0.00;0.00;;;;;26.36;40.23;101717.22;5073264;28;45512;-69
2023/07/17 15:29:30;;;;;;;;;1.00;1.00;;;;;26.36;39.97;101718.06;5074481;28;45438;-68
2023/07/17 15:31:55;;;;;;;;;0.33;0.33;;;;;26.38;40.07;101718.75;5073161;27;45382;-68
2023/07/17 15:34:21;;;;;;;;;0.00;0.00;;;;;26.35;39.55;101715.53;5073986;27;45728;-67
2023/07/17 15:36:46;;;;;;;;;0.67;0.67;;;;;26.39;39.74;101723.19;5069612;27;47343;-68
2023/07/17 15:39:11;;;;;;;;;0.33;0.33;;;;;26.40;39.61;101724.06;5066611;27;45796;-68
2023/07/17 15:41:37;;;;;;;;;0.00;0.00;;;;;26.40;39.85;101727.59;5069018;27;45638;-69
2023/07/17 15:44:02;;;;;;;;;0.00;0.00;;;;;26.41;40.11;101733.91;5067663;27;45432;-70
2023/07/17 15:46:27;;;;;;;;;0.33;0.33;;;;;26.39;40.14;101728.63;5069270;27;45387;-69
2023/07/17 15:48:53;;;;;;;;;1.00;1.00;;;;;26.40;40.26;101733.03;5058680;27;45783;-70
2023/07/17 15:51:18;;;;;;;;;0.00;0.00;;;;;26.40;40.36;101727.59;5072731;27;45433;-71
2023/07/17 15:53:43;;;;;;;;;0.67;0.67;;;;;26.41;39.80;101721.13;5074568;27;45870;-71
2023/07/17 15:56:09;;;;;;;;;2.00;2.00;;;;;26.38;39.59;101723.34;5072494;28;45406;-71
2023/07/17 15:58:34;;;;;;;;;0.00;0.00;;;;;26.42;40.36;101719.28;5070998;27;45478;-70
2023/07/17 16:01:02;;;;;;;;;0.00;0.00;;;;;26.43;40.25;101720.97;5073721;27;45669;-70
2023/07/17 16:03:27;;;;;;;;;0.00;0.00;;;;;26.43;40.38;101718.25;5076753;27;45614;-69
2023/07/17 16:05:52;;;;;;;;;1.00;1.00;;;;;26.44;39.68;101723.53;5072735;27;45464;-69
2023/07/17 16:08:18;;;;;;;;;0.00;0.00;;;;;26.45;40.13;101729.84;5072480;27;45585;-69
2023/07/17 16:10:43;;;;;;;;;2.00;0.00;;;;;26.46;40.19;101723.38;5065845;27;45714;-70
2023/07/17 16:13:09;;;;;;;;;0.00;0.00;;;;;26.47;39.82;101721.50;5073229;27;45599;-70
2023/07/17 16:15:34;;;;;;;;;0.00;0.00;;;;;26.48;39.97;101723.22;5073747;27;46476;-70
2023/07/17 16:17:59;;;;;;;;;2.00;0.33;;;;;26.46;39.48;101714.34;5060832;28;45487;-71
2023/07/17 16:20:25;;;;;;;;;0.00;0.00;;;;;26.47;39.71;101722.34;5061353;27;45517;-71
2023/07/17 16:22:50;;;;;;;;;1.00;1.00;;;;;26.46;40.13;101720.66;5065176;27;45455;-71
2023/07/17 16:25:15;;;;;;;;;0.00;0.00;;;;;26.47;39.89;101718.78;5070317;27;51345;-71
2023/07/17 16:27:41;;;;;;;;;0.00;0.00;;;;;26.48;40.21;101704.16;5059610;27;45320;-70
2023/07/17 16:30:07;;;;;;;;;0.33;0.33;;;;;26.46;40.23;101715.22;5072711;27;53074;-70
2023/07/17 16:32:32;;;;;;;;;0.00;0.00;;;;;26.48;39.87;101712.34;5073036;28;45510;-71
2023/07/17 16:34:57;;;;;;;;;1.00;1.00;;;;;26.46;40.59;101709.78;5071300;27;47224;-70
2023/07/17 16:37:23;;;;;;;;;0.00;0.00;;;;;26.48;39.89;101713.16;5067810;27;45629;-69
2023/07/17 16:39:48;;;;;;;;;0.00;0.00;;;;;26.47;40.33;101708.75;5067953;27;48197;-69
2023/07/17 16:42:13;;;;;;;;;0.00;0.00;;;;;26.48;40.19;101709.63;5086613;27;48283;-70
2023/07/17 16:44:40;;;;;;;;;0.33;0.33;;;;;26.49;39.97;101716.75;5072902;28;48006;-70
2023/07/17 16:47:06;;;;;;;;;0.00;0.00;;;;;26.46;39.97;101708.91;5064121;27;45345;-71
2023/07/17 16:49:31;;;;;;;;;1.00;1.00;;;;;26.46;40.30;101709.78;5071605;28;45498;-69
2023/07/17 16:51:57;;;;;;;;;0.00;0.00;;;;;26.45;40.52;101713.53;5069373;27;45440;-72
2023/07/17 16:54:22;;;;;;;;;0.00;0.00;;;;;26.44;40.30;101717.22;5072344;28;46520;-70
2023/07/17 16:56:47;;;;;;;;;0.00;0.00;;;;;26.45;40.77;101705.34;5072260;27;45582;-70
2023/07/17 16:59:15;;;;;;;;;0.00;0.00;;;;;26.45;40.75;101710.78;5074985;27;45674;-70
2023/07/17 17:01:40;;;;;;;;;1.00;1.00;;;;;26.43;40.28;101710.94;5072855;27;45480;-70
2023/07/17 17:04:06;;;;;;;;;0.00;0.00;;;;;26.43;40.83;101710.94;5070896;28;45863;-70
2023/07/17 17:06:32;;;;;;;;;0.00;0.00;;;;;26.42;40.80;101719.28;5071960;27;45771;-70
2023/07/17 17:09:18;;;;;;;;;2.33;0.67;;;;;26.41;40.56;101714.84;5072508;27;45332;-70
2023/07/17 17:11:45;;;;;;;;;0.00;0.00;;;;;26.39;40.44;101709.56;5063053;27;45508;-70
2023/07/17 17:14:10;;;;;;;;;2.00;0.00;;;;;26.40;40.49;101718.59;5071316;27;45658;-70
2023/07/17 17:16:36;;;;;;;;;0.00;0.00;;;;;26.35;40.37;101713.63;5066434;27;45776;-70
2023/07/17 17:19:02;;;;;;;;;1.00;1.00;;;;;26.37;41.01;101718.91;5068706;27;45466;-70
2023/07/17 17:21:28;;;;;;;;;0.00;0.00;;;;;26.38;40.62;101724.22;5056691;27;45516;-70
2023/07/17 17:23:53;;;;;;;;;0.00;0.00;;;;;26.36;40.60;101712.63;5068015;27;46003;-70
2023/07/17 17:26:19;;;;;;;;;1.00;1.00;;;;;26.37;41.18;101727.94;5064152;27;45625;-71
2023/07/17 17:28:44;;;;;;;;;0.00;0.00;;;;;26.34;41.64;101721.97;5069688;28;45666;-71